sensor_id;sensor_type;location;lat;lon;timestamp;P1;durP1;ratioP1;P2;durP2;ratioP2
33714;SDS011;20043;50.998;4.754;2023-02-22T00:01:23;343.63;;;44.05;;
33714;SDS011;20043;50.998;4.754;2023-02-22T00:04:11;261.80;;;45.08;;
33714;SDS011;20043;50.998;4.754;2023-02-22T00:06:37;227.52;;;44.55;;
33714;SDS011;20043;50.998;4.754;2023-02-22T00:09:03;242.90;;;44.47;;
33714;SDS011;20043;50.998;4.754;2023-02-22T00:11:31;146.98;;;44.95;;
33714;SDS011;20043;50.998;4.754;2023-02-22T00:13:59;156.35;;;45.05;;
33714;SDS011;20043;50.998;4.754;2023-02-22T00:16:26;151.77;;;44.08;;
33714;SDS011;20043;50.998;4.754;2023-02-22T00:18:52;246.55;;;48.33;;
33714;SDS011;20043;50.998;4.754;2023-02-22T00:21:18;295.10;;;48.65;;
33714;SDS011;20043;50.998;4.754;2023-02-22T00:23:44;456.90;;;52.70;;
33714;SDS011;20043;50.998;4.754;2023-02-22T00:26:12;171.70;;;45.10;;
33714;SDS011;20043;50.998;4.754;2023-02-22T00:28:42;249.80;;;47.85;;
33714;SDS011;20043;50.998;4.754;2023-02-22T00:31:09;366.38;;;49.03;;
33714;SDS011;20043;50.998;4.754;2023-02-22T00:33:34;225.38;;;46.80;;
33714;SDS011;20043;50.998;4.754;2023-02-22T00:36:02;201.38;;;46.13;;
33714;SDS011;20043;50.998;4.754;2023-02-22T00:38:28;227.02;;;46.05;;
33714;SDS011;20043;50.998;4.754;2023-02-22T00:40:53;371.23;;;50.45;;
33714;SDS011;20043;50.998;4.754;2023-02-22T00:43:19;427.50;;;45.85;;
33714;SDS011;20043;50.998;4.754;2023-02-22T00:45:45;450.90;;;46.83;;
33714;SDS011;20043;50.998;4.754;2023-02-22T00:48:11;333.30;;;44.70;;
33714;SDS011;20043;50.998;4.754;2023-02-22T00:50:37;338.73;;;43.30;;
33714;SDS011;20043;50.998;4.754;2023-02-22T00:53:03;401.33;;;42.35;;
33714;SDS011;20043;50.998;4.754;2023-02-22T00:55:31;249.63;;;42.25;;
33714;SDS011;20043;50.998;4.754;2023-02-22T00:57:58;186.30;;;41.95;;
33714;SDS011;20043;50.998;4.754;2023-02-22T01:00:27;375.63;;;44.03;;
33714;SDS011;20043;50.998;4.754;2023-02-22T01:02:55;338.50;;;44.47;;
33714;SDS011;20043;50.998;4.754;2023-02-22T01:05:22;236.55;;;41.47;;
33714;SDS011;20043;50.998;4.754;2023-02-22T01:07:49;266.25;;;42.60;;
33714;SDS011;20043;50.998;4.754;2023-02-22T01:10:16;413.38;;;47.05;;
33714;SDS011;20043;50.998;4.754;2023-02-22T01:12:45;152.07;;;41.50;;
33714;SDS011;20043;50.998;4.754;2023-02-22T01:15:11;290.35;;;44.05;;
33714;SDS011;20043;50.998;4.754;2023-02-22T01:17:38;230.10;;;42.80;;
33714;SDS011;20043;50.998;4.754;2023-02-22T01:20:06;262.17;;;43.22;;
33714;SDS011;20043;50.998;4.754;2023-02-22T01:22:42;162.95;;;42.45;;
33714;SDS011;20043;50.998;4.754;2023-02-22T01:25:09;226.43;;;42.28;;
33714;SDS011;20043;50.998;4.754;2023-02-22T01:27:36;186.32;;;43.03;;
33714;SDS011;20043;50.998;4.754;2023-02-22T01:30:03;262.30;;;42.67;;
33714;SDS011;20043;50.998;4.754;2023-02-22T01:32:32;184.75;;;41.67;;
33714;SDS011;20043;50.998;4.754;2023-02-22T01:35:03;248.13;;;42.08;;
33714;SDS011;20043;50.998;4.754;2023-02-22T01:37:30;219.13;;;41.53;;
33714;SDS011;20043;50.998;4.754;2023-02-22T01:39:56;320.83;;;43.63;;
33714;SDS011;20043;50.998;4.754;2023-02-22T01:42:22;309.45;;;41.60;;
33714;SDS011;20043;50.998;4.754;2023-02-22T01:47:51;172.30;;;41.15;;
33714;SDS011;20043;50.998;4.754;2023-02-22T01:50:18;407.42;;;45.10;;
33714;SDS011;20043;50.998;4.754;2023-02-22T01:52:43;125.18;;;43.42;;
33714;SDS011;20043;50.998;4.754;2023-02-22T01:55:09;379.30;;;45.35;;
33714;SDS011;20043;50.998;4.754;2023-02-22T01:57:35;178.77;;;43.13;;
33714;SDS011;20043;50.998;4.754;2023-02-22T02:00:13;167.05;;;44.88;;
33714;SDS011;20043;50.998;4.754;2023-02-22T02:02:48;267.08;;;44.15;;
33714;SDS011;20043;50.998;4.754;2023-02-22T02:05:18;222.60;;;42.97;;
33714;SDS011;20043;50.998;4.754;2023-02-22T02:07:44;214.55;;;43.42;;
33714;SDS011;20043;50.998;4.754;2023-02-22T02:10:11;213.07;;;44.28;;
33714;SDS011;20043;50.998;4.754;2023-02-22T02:12:38;242.45;;;43.95;;
33714;SDS011;20043;50.998;4.754;2023-02-22T02:15:17;241.15;;;46.45;;
33714;SDS011;20043;50.998;4.754;2023-02-22T02:17:53;225.73;;;44.35;;
33714;SDS011;20043;50.998;4.754;2023-02-22T02:20:30;171.43;;;41.88;;
33714;SDS011;20043;50.998;4.754;2023-02-22T02:28:56;184.80;;;42.70;;
33714;SDS011;20043;50.998;4.754;2023-02-22T02:37:36;155.93;;;39.25;;
33714;SDS011;20043;50.998;4.754;2023-02-22T02:43:13;341.90;;;39.25;;
33714;SDS011;20043;50.998;4.754;2023-02-22T02:46:05;278.88;;;39.03;;
33714;SDS011;20043;50.998;4.754;2023-02-22T02:48:32;188.85;;;39.53;;
33714;SDS011;20043;50.998;4.754;2023-02-22T02:51:00;358.83;;;40.30;;
33714;SDS011;20043;50.998;4.754;2023-02-22T02:53:33;248.90;;;40.58;;
33714;SDS011;20043;50.998;4.754;2023-02-22T02:56:01;210.27;;;38.25;;
33714;SDS011;20043;50.998;4.754;2023-02-22T02:58:27;259.58;;;39.15;;
33714;SDS011;20043;50.998;4.754;2023-02-22T03:00:55;163.80;;;38.72;;
33714;SDS011;20043;50.998;4.754;2023-02-22T03:03:28;111.43;;;38.58;;
33714;SDS011;20043;50.998;4.754;2023-02-22T03:11:31;192.85;;;36.63;;
33714;SDS011;20043;50.998;4.754;2023-02-22T03:14:15;240.82;;;36.25;;
33714;SDS011;20043;50.998;4.754;2023-02-22T03:19:36;119.32;;;36.15;;
33714;SDS011;20043;50.998;4.754;2023-02-22T03:22:19;72.78;;;33.83;;
33714;SDS011;20043;50.998;4.754;2023-02-22T03:25:11;111.05;;;33.55;;
33714;SDS011;20043;50.998;4.754;2023-02-22T03:27:41;84.07;;;33.13;;
33714;SDS011;20043;50.998;4.754;2023-02-22T03:30:34;66.28;;;32.03;;
33714;SDS011;20043;50.998;4.754;2023-02-22T03:33:01;83.30;;;32.13;;
33714;SDS011;20043;50.998;4.754;2023-02-22T03:35:34;105.75;;;29.48;;
33714;SDS011;20043;50.998;4.754;2023-02-22T03:38:03;69.28;;;30.92;;
33714;SDS011;20043;50.998;4.754;2023-02-22T03:40:34;86.32;;;30.88;;
33714;SDS011;20043;50.998;4.754;2023-02-22T03:43:06;66.03;;;30.60;;
33714;SDS011;20043;50.998;4.754;2023-02-22T03:45:39;81.68;;;30.70;;
33714;SDS011;20043;50.998;4.754;2023-02-22T03:48:19;60.50;;;30.40;;
33714;SDS011;20043;50.998;4.754;2023-02-22T03:50:50;90.03;;;30.58;;
33714;SDS011;20043;50.998;4.754;2023-02-22T03:53:17;132.57;;;30.85;;
33714;SDS011;20043;50.998;4.754;2023-02-22T03:55:45;71.07;;;29.70;;
33714;SDS011;20043;50.998;4.754;2023-02-22T03:58:15;55.67;;;29.13;;
33714;SDS011;20043;50.998;4.754;2023-02-22T04:00:44;54.90;;;29.27;;
33714;SDS011;20043;50.998;4.754;2023-02-22T04:03:10;57.97;;;28.40;;
33714;SDS011;20043;50.998;4.754;2023-02-22T04:05:36;59.60;;;27.63;;
33714;SDS011;20043;50.998;4.754;2023-02-22T04:08:02;67.15;;;29.35;;
33714;SDS011;20043;50.998;4.754;2023-02-22T04:10:29;61.00;;;27.15;;
33714;SDS011;20043;50.998;4.754;2023-02-22T04:12:55;53.80;;;27.60;;
33714;SDS011;20043;50.998;4.754;2023-02-22T04:15:22;70.22;;;28.02;;
33714;SDS011;20043;50.998;4.754;2023-02-22T04:17:48;49.88;;;26.48;;
33714;SDS011;20043;50.998;4.754;2023-02-22T04:20:16;49.97;;;27.70;;
33714;SDS011;20043;50.998;4.754;2023-02-22T04:22:43;62.95;;;27.08;;
33714;SDS011;20043;50.998;4.754;2023-02-22T04:25:10;75.65;;;27.50;;
33714;SDS011;20043;50.998;4.754;2023-02-22T04:27:36;48.13;;;27.48;;
33714;SDS011;20043;50.998;4.754;2023-02-22T04:30:01;77.45;;;25.17;;
33714;SDS011;20043;50.998;4.754;2023-02-22T04:32:27;71.80;;;25.63;;
33714;SDS011;20043;50.998;4.754;2023-02-22T04:34:53;52.50;;;24.95;;
33714;SDS011;20043;50.998;4.754;2023-02-22T04:37:18;64.53;;;25.65;;
33714;SDS011;20043;50.998;4.754;2023-02-22T04:39:44;71.20;;;26.73;;
33714;SDS011;20043;50.998;4.754;2023-02-22T04:42:09;56.70;;;28.35;;
33714;SDS011;20043;50.998;4.754;2023-02-22T04:44:35;58.30;;;26.65;;
33714;SDS011;20043;50.998;4.754;2023-02-22T04:47:01;59.33;;;26.23;;
33714;SDS011;20043;50.998;4.754;2023-02-22T04:49:26;58.72;;;26.60;;
33714;SDS011;20043;50.998;4.754;2023-02-22T04:51:52;73.70;;;25.60;;
33714;SDS011;20043;50.998;4.754;2023-02-22T04:54:17;44.08;;;24.13;;
33714;SDS011;20043;50.998;4.754;2023-02-22T04:56:43;41.33;;;25.67;;
33714;SDS011;20043;50.998;4.754;2023-02-22T04:59:09;50.95;;;26.10;;
33714;SDS011;20043;50.998;4.754;2023-02-22T05:01:35;55.60;;;25.08;;
33714;SDS011;20043;50.998;4.754;2023-02-22T05:04:04;45.65;;;25.65;;
33714;SDS011;20043;50.998;4.754;2023-02-22T05:06:31;51.05;;;25.20;;
33714;SDS011;20043;50.998;4.754;2023-02-22T05:08:56;39.97;;;23.95;;
33714;SDS011;20043;50.998;4.754;2023-02-22T05:11:22;38.22;;;24.13;;
33714;SDS011;20043;50.998;4.754;2023-02-22T05:13:48;37.30;;;23.23;;
33714;SDS011;20043;50.998;4.754;2023-02-22T05:16:14;41.63;;;23.00;;
33714;SDS011;20043;50.998;4.754;2023-02-22T05:18:39;36.00;;;23.52;;
33714;SDS011;20043;50.998;4.754;2023-02-22T05:21:05;55.70;;;23.23;;
33714;SDS011;20043;50.998;4.754;2023-02-22T05:23:31;41.75;;;23.42;;
33714;SDS011;20043;50.998;4.754;2023-02-22T05:25:57;43.50;;;24.35;;
33714;SDS011;20043;50.998;4.754;2023-02-22T05:28:23;36.72;;;23.83;;
33714;SDS011;20043;50.998;4.754;2023-02-22T05:30:48;43.17;;;23.20;;
33714;SDS011;20043;50.998;4.754;2023-02-22T05:33:14;37.80;;;23.02;;
33714;SDS011;20043;50.998;4.754;2023-02-22T05:35:40;36.20;;;22.55;;
33714;SDS011;20043;50.998;4.754;2023-02-22T05:38:06;36.50;;;22.00;;
33714;SDS011;20043;50.998;4.754;2023-02-22T05:40:31;31.88;;;21.45;;
33714;SDS011;20043;50.998;4.754;2023-02-22T05:42:57;33.67;;;21.98;;
33714;SDS011;20043;50.998;4.754;2023-02-22T05:45:25;34.28;;;21.42;;
33714;SDS011;20043;50.998;4.754;2023-02-22T05:47:52;30.98;;;20.63;;
33714;SDS011;20043;50.998;4.754;2023-02-22T05:50:18;31.63;;;20.58;;
33714;SDS011;20043;50.998;4.754;2023-02-22T05:52:45;29.58;;;20.15;;
33714;SDS011;20043;50.998;4.754;2023-02-22T05:55:13;28.02;;;18.65;;
33714;SDS011;20043;50.998;4.754;2023-02-22T05:57:40;29.83;;;19.15;;
33714;SDS011;20043;50.998;4.754;2023-02-22T06:00:06;28.10;;;18.77;;
33714;SDS011;20043;50.998;4.754;2023-02-22T06:02:33;26.48;;;19.05;;
33714;SDS011;20043;50.998;4.754;2023-02-22T06:04:58;28.83;;;18.77;;
33714;SDS011;20043;50.998;4.754;2023-02-22T06:07:24;26.02;;;17.75;;
33714;SDS011;20043;50.998;4.754;2023-02-22T06:09:51;25.40;;;18.17;;
33714;SDS011;20043;50.998;4.754;2023-02-22T06:12:17;25.13;;;17.42;;
33714;SDS011;20043;50.998;4.754;2023-02-22T06:14:43;26.90;;;17.27;;
33714;SDS011;20043;50.998;4.754;2023-02-22T06:17:10;23.88;;;16.88;;
33714;SDS011;20043;50.998;4.754;2023-02-22T06:19:37;24.05;;;16.17;;
33714;SDS011;20043;50.998;4.754;2023-02-22T06:22:04;22.70;;;16.08;;
33714;SDS011;20043;50.998;4.754;2023-02-22T06:24:30;21.80;;;15.90;;
33714;SDS011;20043;50.998;4.754;2023-02-22T06:26:56;21.00;;;15.32;;
33714;SDS011;20043;50.998;4.754;2023-02-22T06:29:24;24.65;;;16.63;;
33714;SDS011;20043;50.998;4.754;2023-02-22T06:31:50;22.30;;;15.32;;
33714;SDS011;20043;50.998;4.754;2023-02-22T06:34:16;23.60;;;16.00;;
33714;SDS011;20043;50.998;4.754;2023-02-22T06:36:42;23.33;;;16.38;;
33714;SDS011;20043;50.998;4.754;2023-02-22T06:39:08;27.45;;;17.10;;
33714;SDS011;20043;50.998;4.754;2023-02-22T06:41:37;26.08;;;16.77;;
33714;SDS011;20043;50.998;4.754;2023-02-22T06:44:04;24.15;;;16.25;;
33714;SDS011;20043;50.998;4.754;2023-02-22T06:46:29;21.98;;;15.50;;
33714;SDS011;20043;50.998;4.754;2023-02-22T06:48:55;23.98;;;16.38;;
33714;SDS011;20043;50.998;4.754;2023-02-22T06:51:23;23.85;;;17.00;;
33714;SDS011;20043;50.998;4.754;2023-02-22T06:53:49;21.95;;;16.33;;
33714;SDS011;20043;50.998;4.754;2023-02-22T06:56:15;25.13;;;16.85;;
33714;SDS011;20043;50.998;4.754;2023-02-22T06:58:41;23.70;;;16.45;;
33714;SDS011;20043;50.998;4.754;2023-02-22T07:01:07;22.50;;;16.67;;
33714;SDS011;20043;50.998;4.754;2023-02-22T07:03:33;24.42;;;16.45;;
33714;SDS011;20043;50.998;4.754;2023-02-22T07:05:59;22.85;;;16.42;;
33714;SDS011;20043;50.998;4.754;2023-02-22T07:08:26;22.63;;;16.58;;
33714;SDS011;20043;50.998;4.754;2023-02-22T07:10:52;24.88;;;17.55;;
33714;SDS011;20043;50.998;4.754;2023-02-22T07:13:18;24.55;;;17.10;;
33714;SDS011;20043;50.998;4.754;2023-02-22T07:15:43;26.25;;;16.23;;
33714;SDS011;20043;50.998;4.754;2023-02-22T07:18:09;23.65;;;16.83;;
33714;SDS011;20043;50.998;4.754;2023-02-22T07:20:36;24.65;;;18.05;;
33714;SDS011;20043;50.998;4.754;2023-02-22T07:23:01;46.80;;;29.90;;
33714;SDS011;20043;50.998;4.754;2023-02-22T07:25:28;30.35;;;19.20;;
33714;SDS011;20043;50.998;4.754;2023-02-22T07:27:53;29.65;;;19.85;;
33714;SDS011;20043;50.998;4.754;2023-02-22T07:32:49;22.17;;;15.50;;
33714;SDS011;20043;50.998;4.754;2023-02-22T07:35:37;20.40;;;14.43;;
33714;SDS011;20043;50.998;4.754;2023-02-22T07:38:06;21.42;;;15.48;;
33714;SDS011;20043;50.998;4.754;2023-02-22T07:40:32;21.00;;;15.55;;
33714;SDS011;20043;50.998;4.754;2023-02-22T07:43:02;22.05;;;15.05;;
33714;SDS011;20043;50.998;4.754;2023-02-22T07:45:30;22.65;;;15.52;;
33714;SDS011;20043;50.998;4.754;2023-02-22T07:47:57;22.00;;;15.13;;
33714;SDS011;20043;50.998;4.754;2023-02-22T07:50:24;20.48;;;15.07;;
33714;SDS011;20043;50.998;4.754;2023-02-22T07:52:52;22.60;;;15.60;;
33714;SDS011;20043;50.998;4.754;2023-02-22T07:55:20;21.75;;;14.30;;
33714;SDS011;20043;50.998;4.754;2023-02-22T07:57:49;22.20;;;14.65;;
33714;SDS011;20043;50.998;4.754;2023-02-22T08:00:24;21.45;;;15.38;;
33714;SDS011;20043;50.998;4.754;2023-02-22T08:02:55;22.48;;;15.60;;
33714;SDS011;20043;50.998;4.754;2023-02-22T08:05:22;23.33;;;15.52;;
33714;SDS011;20043;50.998;4.754;2023-02-22T08:07:49;22.85;;;14.75;;
33714;SDS011;20043;50.998;4.754;2023-02-22T08:10:16;25.55;;;15.48;;
33714;SDS011;20043;50.998;4.754;2023-02-22T08:12:44;21.42;;;15.13;;
33714;SDS011;20043;50.998;4.754;2023-02-22T08:15:14;21.45;;;15.20;;
33714;SDS011;20043;50.998;4.754;2023-02-22T08:17:42;21.50;;;14.77;;
33714;SDS011;20043;50.998;4.754;2023-02-22T08:20:08;22.67;;;14.93;;
33714;SDS011;20043;50.998;4.754;2023-02-22T08:22:34;20.30;;;14.90;;
33714;SDS011;20043;50.998;4.754;2023-02-22T08:24:59;20.80;;;15.13;;
33714;SDS011;20043;50.998;4.754;2023-02-22T08:27:26;22.83;;;15.30;;
33714;SDS011;20043;50.998;4.754;2023-02-22T08:29:53;18.38;;;14.05;;
33714;SDS011;20043;50.998;4.754;2023-02-22T08:32:19;24.55;;;14.25;;
33714;SDS011;20043;50.998;4.754;2023-02-22T08:34:45;20.27;;;14.05;;
33714;SDS011;20043;50.998;4.754;2023-02-22T08:37:12;18.52;;;12.55;;
33714;SDS011;20043;50.998;4.754;2023-02-22T08:39:38;20.83;;;13.45;;
33714;SDS011;20043;50.998;4.754;2023-02-22T08:42:04;19.58;;;13.43;;
33714;SDS011;20043;50.998;4.754;2023-02-22T08:44:30;18.75;;;13.10;;
33714;SDS011;20043;50.998;4.754;2023-02-22T08:46:55;18.02;;;12.93;;
33714;SDS011;20043;50.998;4.754;2023-02-22T08:49:22;20.10;;;13.00;;
33714;SDS011;20043;50.998;4.754;2023-02-22T08:51:47;16.38;;;12.25;;
33714;SDS011;20043;50.998;4.754;2023-02-22T08:54:13;20.60;;;13.13;;
33714;SDS011;20043;50.998;4.754;2023-02-22T08:56:39;22.30;;;13.55;;
33714;SDS011;20043;50.998;4.754;2023-02-22T08:59:04;19.90;;;12.85;;
33714;SDS011;20043;50.998;4.754;2023-02-22T09:01:30;18.20;;;12.90;;
33714;SDS011;20043;50.998;4.754;2023-02-22T09:03:56;18.98;;;13.27;;
33714;SDS011;20043;50.998;4.754;2023-02-22T09:06:22;17.63;;;13.43;;
33714;SDS011;20043;50.998;4.754;2023-02-22T09:08:48;19.50;;;12.93;;
33714;SDS011;20043;50.998;4.754;2023-02-22T09:11:13;18.77;;;12.02;;
33714;SDS011;20043;50.998;4.754;2023-02-22T09:13:39;17.08;;;12.25;;
33714;SDS011;20043;50.998;4.754;2023-02-22T09:16:05;21.92;;;12.95;;
33714;SDS011;20043;50.998;4.754;2023-02-22T09:18:31;19.50;;;12.18;;
33714;SDS011;20043;50.998;4.754;2023-02-22T09:20:56;19.15;;;11.88;;
33714;SDS011;20043;50.998;4.754;2023-02-22T09:23:22;21.05;;;12.48;;
33714;SDS011;20043;50.998;4.754;2023-02-22T09:25:49;21.38;;;12.20;;
33714;SDS011;20043;50.998;4.754;2023-02-22T09:28:15;16.15;;;11.55;;
33714;SDS011;20043;50.998;4.754;2023-02-22T09:30:41;23.52;;;12.25;;
33714;SDS011;20043;50.998;4.754;2023-02-22T09:33:08;19.98;;;12.00;;
33714;SDS011;20043;50.998;4.754;2023-02-22T09:35:35;21.05;;;12.40;;
33714;SDS011;20043;50.998;4.754;2023-02-22T09:38:06;18.63;;;12.90;;
33714;SDS011;20043;50.998;4.754;2023-02-22T09:40:32;19.83;;;12.75;;
33714;SDS011;20043;50.998;4.754;2023-02-22T09:48:55;18.92;;;11.95;;
33714;SDS011;20043;50.998;4.754;2023-02-22T09:51:41;16.58;;;11.55;;
33714;SDS011;20043;50.998;4.754;2023-02-22T09:54:18;17.75;;;11.18;;
33714;SDS011;20043;50.998;4.754;2023-02-22T09:56:49;18.48;;;11.30;;
33714;SDS011;20043;50.998;4.754;2023-02-22T09:59:20;19.02;;;12.02;;
33714;SDS011;20043;50.998;4.754;2023-02-22T10:01:54;44.25;;;13.98;;
33714;SDS011;20043;50.998;4.754;2023-02-22T10:07:16;22.40;;;13.07;;
33714;SDS011;20043;50.998;4.754;2023-02-22T10:10:04;25.58;;;13.00;;
33714;SDS011;20043;50.998;4.754;2023-02-22T10:28:41;22.15;;;13.65;;
33714;SDS011;20043;50.998;4.754;2023-02-22T10:31:23;28.27;;;14.90;;
33714;SDS011;20043;50.998;4.754;2023-02-22T10:34:02;24.38;;;13.82;;
33714;SDS011;20043;50.998;4.754;2023-02-22T10:36:29;22.00;;;13.90;;
33714;SDS011;20043;50.998;4.754;2023-02-22T10:41:28;22.10;;;14.05;;
33714;SDS011;20043;50.998;4.754;2023-02-22T10:43:56;26.80;;;15.00;;
33714;SDS011;20043;50.998;4.754;2023-02-22T10:46:22;26.10;;;15.00;;
33714;SDS011;20043;50.998;4.754;2023-02-22T10:48:50;27.17;;;16.23;;
33714;SDS011;20043;50.998;4.754;2023-02-22T10:51:18;24.90;;;13.90;;
33714;SDS011;20043;50.998;4.754;2023-02-22T10:53:44;32.75;;;15.88;;
33714;SDS011;20043;50.998;4.754;2023-02-22T10:56:22;26.70;;;15.90;;
33714;SDS011;20043;50.998;4.754;2023-02-22T10:58:51;24.35;;;14.75;;
33714;SDS011;20043;50.998;4.754;2023-02-22T11:03:59;30.00;;;15.25;;
33714;SDS011;20043;50.998;4.754;2023-02-22T11:06:25;22.40;;;14.23;;
33714;SDS011;20043;50.998;4.754;2023-02-22T11:08:51;22.33;;;14.10;;
33714;SDS011;20043;50.998;4.754;2023-02-22T11:11:34;21.90;;;13.88;;
33714;SDS011;20043;50.998;4.754;2023-02-22T11:14:00;21.55;;;13.52;;
33714;SDS011;20043;50.998;4.754;2023-02-22T11:19:06;29.08;;;14.05;;
33714;SDS011;20043;50.998;4.754;2023-02-22T11:21:44;21.02;;;13.90;;
33714;SDS011;20043;50.998;4.754;2023-02-22T11:24:12;23.90;;;14.07;;
33714;SDS011;20043;50.998;4.754;2023-02-22T11:26:44;23.48;;;14.65;;
33714;SDS011;20043;50.998;4.754;2023-02-22T11:29:35;25.67;;;14.98;;
33714;SDS011;20043;50.998;4.754;2023-02-22T11:32:14;23.17;;;14.57;;
33714;SDS011;20043;50.998;4.754;2023-02-22T11:34:47;25.38;;;14.32;;
33714;SDS011;20043;50.998;4.754;2023-02-22T11:37:35;23.33;;;14.77;;
33714;SDS011;20043;50.998;4.754;2023-02-22T11:42:31;36.55;;;14.77;;
33714;SDS011;20043;50.998;4.754;2023-02-22T11:45:14;28.20;;;14.68;;
33714;SDS011;20043;50.998;4.754;2023-02-22T11:47:58;22.60;;;14.18;;
33714;SDS011;20043;50.998;4.754;2023-02-22T11:50:30;28.20;;;15.63;;
33714;SDS011;20043;50.998;4.754;2023-02-22T11:53:11;24.05;;;14.32;;
33714;SDS011;20043;50.998;4.754;2023-02-22T11:58:48;29.42;;;16.45;;
33714;SDS011;20043;50.998;4.754;2023-02-22T12:07:23;30.25;;;16.30;;
33714;SDS011;20043;50.998;4.754;2023-02-22T12:15:38;27.67;;;17.70;;
33714;SDS011;20043;50.998;4.754;2023-02-22T12:21:01;28.05;;;17.58;;
33714;SDS011;20043;50.998;4.754;2023-02-22T12:23:37;28.92;;;17.67;;
33714;SDS011;20043;50.998;4.754;2023-02-22T12:26:12;31.33;;;17.08;;
33714;SDS011;20043;50.998;4.754;2023-02-22T12:28:42;28.50;;;17.38;;
33714;SDS011;20043;50.998;4.754;2023-02-22T12:33:49;28.45;;;16.80;;
33714;SDS011;20043;50.998;4.754;2023-02-22T12:36:32;30.65;;;16.83;;
33714;SDS011;20043;50.998;4.754;2023-02-22T12:39:20;30.20;;;17.38;;
33714;SDS011;20043;50.998;4.754;2023-02-22T12:41:57;25.60;;;17.73;;
33714;SDS011;20043;50.998;4.754;2023-02-22T12:44:36;25.58;;;18.08;;
33714;SDS011;20043;50.998;4.754;2023-02-22T12:47:05;32.08;;;19.70;;
33714;SDS011;20043;50.998;4.754;2023-02-22T12:55:17;36.85;;;21.38;;
33714;SDS011;20043;50.998;4.754;2023-02-22T12:57:50;26.67;;;19.75;;
33714;SDS011;20043;50.998;4.754;2023-02-22T13:00:19;34.00;;;20.90;;
33714;SDS011;20043;50.998;4.754;2023-02-22T13:17:19;35.67;;;21.80;;
33714;SDS011;20043;50.998;4.754;2023-02-22T13:19:58;32.38;;;21.73;;
33714;SDS011;20043;50.998;4.754;2023-02-22T13:27:54;37.97;;;23.02;;
33714;SDS011;20043;50.998;4.754;2023-02-22T13:30:36;36.03;;;24.92;;
33714;SDS011;20043;50.998;4.754;2023-02-22T13:33:33;44.75;;;25.27;;
33714;SDS011;20043;50.998;4.754;2023-02-22T13:36:07;38.55;;;26.02;;
33714;SDS011;20043;50.998;4.754;2023-02-22T13:52:30;46.40;;;27.98;;
33714;SDS011;20043;50.998;4.754;2023-02-22T13:55:01;42.38;;;28.83;;
33714;SDS011;20043;50.998;4.754;2023-02-22T13:57:38;42.00;;;28.52;;
33714;SDS011;20043;50.998;4.754;2023-02-22T14:13:25;42.65;;;27.15;;
33714;SDS011;20043;50.998;4.754;2023-02-22T14:18:24;37.50;;;27.25;;
33714;SDS011;20043;50.998;4.754;2023-02-22T14:21:06;37.88;;;29.67;;
33714;SDS011;20043;50.998;4.754;2023-02-22T14:26:10;39.25;;;29.33;;
33714;SDS011;20043;50.998;4.754;2023-02-22T14:28:53;42.65;;;31.05;;
33714;SDS011;20043;50.998;4.754;2023-02-22T14:31:23;44.33;;;32.63;;
33714;SDS011;20043;50.998;4.754;2023-02-22T14:36:35;44.15;;;32.53;;
33714;SDS011;20043;50.998;4.754;2023-02-22T14:44:47;49.47;;;32.95;;
33714;SDS011;20043;50.998;4.754;2023-02-22T14:47:17;44.15;;;32.33;;
33714;SDS011;20043;50.998;4.754;2023-02-22T14:49:46;41.60;;;32.13;;
33714;SDS011;20043;50.998;4.754;2023-02-22T14:52:26;43.53;;;32.03;;
33714;SDS011;20043;50.998;4.754;2023-02-22T14:55:01;43.22;;;32.75;;
33714;SDS011;20043;50.998;4.754;2023-02-22T15:00:27;48.45;;;33.70;;
33714;SDS011;20043;50.998;4.754;2023-02-22T15:03:10;43.60;;;32.00;;
33714;SDS011;20043;50.998;4.754;2023-02-22T15:05:51;42.05;;;33.17;;
33714;SDS011;20043;50.998;4.754;2023-02-22T15:08:17;49.00;;;34.15;;
33714;SDS011;20043;50.998;4.754;2023-02-22T15:10:52;51.25;;;35.65;;
33714;SDS011;20043;50.998;4.754;2023-02-22T15:13:25;44.67;;;34.70;;
33714;SDS011;20043;50.998;4.754;2023-02-22T15:15:56;46.28;;;33.67;;
33714;SDS011;20043;50.998;4.754;2023-02-22T15:20:50;47.22;;;34.72;;
33714;SDS011;20043;50.998;4.754;2023-02-22T15:23:25;47.10;;;34.42;;
33714;SDS011;20043;50.998;4.754;2023-02-22T15:25:57;48.92;;;35.80;;
33714;SDS011;20043;50.998;4.754;2023-02-22T15:28:23;51.95;;;34.97;;
33714;SDS011;20043;50.998;4.754;2023-02-22T15:31:12;50.90;;;36.17;;
33714;SDS011;20043;50.998;4.754;2023-02-22T15:33:45;47.05;;;35.17;;
33714;SDS011;20043;50.998;4.754;2023-02-22T15:36:12;55.72;;;37.00;;
33714;SDS011;20043;50.998;4.754;2023-02-22T15:38:40;49.85;;;35.90;;
33714;SDS011;20043;50.998;4.754;2023-02-22T15:41:20;47.97;;;36.65;;
33714;SDS011;20043;50.998;4.754;2023-02-22T15:43:58;54.42;;;38.38;;
33714;SDS011;20043;50.998;4.754;2023-02-22T15:46:32;53.13;;;36.72;;
33714;SDS011;20043;50.998;4.754;2023-02-22T15:51:32;52.83;;;37.47;;
33714;SDS011;20043;50.998;4.754;2023-02-22T15:53:59;54.20;;;38.40;;
33714;SDS011;20043;50.998;4.754;2023-02-22T15:56:30;57.97;;;37.97;;
33714;SDS011;20043;50.998;4.754;2023-02-22T15:59:10;50.25;;;37.38;;
33714;SDS011;20043;50.998;4.754;2023-02-22T16:01:41;59.65;;;38.35;;
33714;SDS011;20043;50.998;4.754;2023-02-22T16:04:16;56.63;;;39.53;;
33714;SDS011;20043;50.998;4.754;2023-02-22T16:06:44;55.95;;;40.70;;
33714;SDS011;20043;50.998;4.754;2023-02-22T16:09:10;91.10;;;42.13;;
33714;SDS011;20043;50.998;4.754;2023-02-22T16:11:39;63.45;;;42.75;;
33714;SDS011;20043;50.998;4.754;2023-02-22T16:17:30;61.88;;;42.35;;
33714;SDS011;20043;50.998;4.754;2023-02-22T16:22:45;62.08;;;43.22;;
33714;SDS011;20043;50.998;4.754;2023-02-22T16:27:44;63.22;;;43.90;;
33714;SDS011;20043;50.998;4.754;2023-02-22T16:30:23;67.78;;;44.65;;
33714;SDS011;20043;50.998;4.754;2023-02-22T16:33:02;61.75;;;43.97;;
33714;SDS011;20043;50.998;4.754;2023-02-22T16:35:29;61.85;;;43.08;;
33714;SDS011;20043;50.998;4.754;2023-02-22T16:38:00;64.82;;;43.88;;
33714;SDS011;20043;50.998;4.754;2023-02-22T16:43:01;62.97;;;44.03;;
33714;SDS011;20043;50.998;4.754;2023-02-22T16:45:29;64.88;;;43.20;;
33714;SDS011;20043;50.998;4.754;2023-02-22T16:47:54;70.15;;;44.03;;
33714;SDS011;20043;50.998;4.754;2023-02-22T16:50:20;62.45;;;43.25;;
33714;SDS011;20043;50.998;4.754;2023-02-22T16:52:47;63.83;;;44.10;;
33714;SDS011;20043;50.998;4.754;2023-02-22T16:55:14;67.22;;;45.22;;
33714;SDS011;20043;50.998;4.754;2023-02-22T16:57:41;69.05;;;44.92;;
33714;SDS011;20043;50.998;4.754;2023-02-22T17:00:13;67.00;;;45.63;;
33714;SDS011;20043;50.998;4.754;2023-02-22T17:02:45;74.68;;;45.97;;
33714;SDS011;20043;50.998;4.754;2023-02-22T17:05:12;66.90;;;47.15;;
33714;SDS011;20043;50.998;4.754;2023-02-22T17:07:39;69.30;;;46.70;;
33714;SDS011;20043;50.998;4.754;2023-02-22T17:10:06;65.63;;;45.15;;
33714;SDS011;20043;50.998;4.754;2023-02-22T17:12:34;76.05;;;46.47;;
33714;SDS011;20043;50.998;4.754;2023-02-22T17:15:00;73.32;;;47.10;;
33714;SDS011;20043;50.998;4.754;2023-02-22T17:17:27;68.40;;;45.15;;
33714;SDS011;20043;50.998;4.754;2023-02-22T17:19:53;73.90;;;47.67;;
33714;SDS011;20043;50.998;4.754;2023-02-22T17:22:19;77.05;;;47.72;;